createdAt,value
2023-01-26T00:01:23.821Z,102243.38
2023-01-26T00:03:51.280Z,102246.06
2023-01-26T00:06:20.228Z,102247.94
2023-01-26T00:08:50.579Z,102241.19
2023-01-26T00:11:21.094Z,102240.41
2023-01-26T00:13:50.778Z,102231.88
2023-01-26T00:16:17.960Z,102236.13
2023-01-26T00:18:44.888Z,102245.53
2023-01-26T00:21:20.855Z,102230.13
2023-01-26T00:23:48.890Z,102226.72
2023-01-26T00:26:23.187Z,102205.78
2023-01-26T00:28:53.758Z,102211.41
2023-01-26T00:31:27.269Z,102213.97
2023-01-26T00:33:55.762Z,102221.69
2023-01-26T00:36:23.310Z,102220.81
2023-01-26T00:38:50.183Z,102215.72
2023-01-26T00:41:35.348Z,102214.97
2023-01-26T00:44:02.362Z,102204.66
2023-01-26T00:46:29.562Z,102202.81
2023-01-26T00:48:56.521Z,102205.38
2023-01-26T00:51:23.410Z,102201.88
2023-01-26T00:53:50.305Z,102202.00
2023-01-26T00:56:17.191Z,102203.69
2023-01-26T00:58:45.700Z,102196.84
2023-01-26T01:01:12.827Z,102195.97
2023-01-26T01:03:42.620Z,102175.72
2023-01-26T01:06:09.536Z,102192.50
2023-01-26T01:08:36.476Z,102191.53
2023-01-26T01:11:06.180Z,102187.88
2023-01-26T01:13:33.153Z,102182.81
2023-01-26T01:16:00.094Z,102185.50
2023-01-26T01:18:27.025Z,102184.69
2023-01-26T01:20:53.907Z,102185.69
2023-01-26T01:23:20.834Z,102178.06
2023-01-26T01:25:47.764Z,102171.13
2023-01-26T01:28:14.889Z,102171.00
2023-01-26T01:30:41.784Z,102176.16
2023-01-26T01:33:08.668Z,102167.56
2023-01-26T01:35:35.823Z,102156.50
2023-01-26T01:38:03.035Z,102154.81
2023-01-26T01:40:29.920Z,102159.13
2023-01-26T01:42:56.853Z,102154.91
2023-01-26T01:45:26.654Z,102156.56
2023-01-26T01:47:57.749Z,102144.13
2023-01-26T01:50:26.495Z,102148.84
2023-01-26T01:52:55.874Z,102144.50
2023-01-26T01:55:25.546Z,102141.78
2023-01-26T01:57:58.935Z,102136.25
2023-01-26T02:00:26.877Z,102132.97
2023-01-26T02:03:19.053Z,102130.38
2023-01-26T02:06:12.245Z,102126.94
2023-01-26T02:08:44.282Z,102132.97
2023-01-26T02:11:22.690Z,102116.38
2023-01-26T02:13:50.565Z,102112.03
2023-01-26T02:16:19.028Z,102107.19
2023-01-26T02:18:47.044Z,102098.47
2023-01-26T02:21:20.623Z,102097.66
2023-01-26T02:23:58.739Z,102089.06
2023-01-26T02:26:29.390Z,102089.88
2023-01-26T02:28:56.781Z,102084.47
2023-01-26T02:31:25.363Z,102084.63
2023-01-26T02:33:53.668Z,102080.38
2023-01-26T02:36:31.909Z,102081.19
2023-01-26T02:39:30.176Z,102081.00
2023-01-26T02:42:15.765Z,102074.94
2023-01-26T02:44:44.001Z,102074.00
2023-01-26T02:47:17.144Z,102074.94
2023-01-26T02:49:50.388Z,102064.75
2023-01-26T02:52:26.557Z,102060.50
2023-01-26T02:55:17.173Z,102056.22
2023-01-26T02:57:45.417Z,102071.66
2023-01-26T03:00:22.531Z,102064.66
2023-01-26T03:02:53.917Z,102066.28
2023-01-26T03:05:20.812Z,102069.63
2023-01-26T03:07:47.997Z,102068.66
2023-01-26T03:10:18.595Z,102063.44
2023-01-26T03:12:46.400Z,102064.22
2023-01-26T03:15:31.931Z,102065.91
2023-01-26T03:18:37.159Z,102058.03
2023-01-26T03:21:33.488Z,102055.06
2023-01-26T03:24:20.320Z,102058.78
2023-01-26T03:27:06.255Z,102062.19
2023-01-26T03:29:34.451Z,102051.78
2023-01-26T03:32:02.194Z,102055.16
2023-01-26T03:34:29.803Z,102057.03
2023-01-26T03:36:57.797Z,102053.59
2023-01-26T03:39:43.838Z,102065.72
2023-01-26T03:42:29.229Z,102056.69
2023-01-26T03:45:15.288Z,102071.66
2023-01-26T03:48:01.933Z,102060.22
2023-01-26T03:50:49.048Z,102076.03
2023-01-26T03:53:38.844Z,102078.47
2023-01-26T03:56:22.835Z,102081.06
2023-01-26T03:58:55.313Z,102075.91
2023-01-26T04:01:27.775Z,102084.44
2023-01-26T04:04:16.244Z,102076.63
2023-01-26T04:07:05.278Z,102073.06
2023-01-26T04:09:33.522Z,102082.41
2023-01-26T04:12:00.550Z,102078.91
2023-01-26T04:14:49.739Z,102072.91
2023-01-26T04:17:39.780Z,102065.19
2023-01-26T04:20:26.256Z,102066.88
2023-01-26T04:22:53.230Z,102073.69
2023-01-26T04:25:21.977Z,102067.75
2023-01-26T04:27:49.419Z,102054.72
2023-01-26T04:30:17.835Z,102061.03
2023-01-26T04:32:46.264Z,102065.28
2023-01-26T04:35:14.281Z,102060.13
2023-01-26T04:37:42.771Z,102054.19
2023-01-26T04:40:10.865Z,102061.13
2023-01-26T04:42:38.796Z,102068.72
2023-01-26T04:45:06.771Z,102060.91
2023-01-26T04:47:34.912Z,102053.19
2023-01-26T04:50:03.379Z,102054.00
2023-01-26T04:52:30.308Z,102048.69
2023-01-26T04:54:57.231Z,102058.09
2023-01-26T04:57:24.620Z,102059.88
2023-01-26T04:59:52.419Z,102054.72
2023-01-26T05:02:20.516Z,102054.91
2023-01-26T05:04:47.481Z,102055.88
2023-01-26T05:07:15.464Z,102058.63
2023-01-26T05:09:44.167Z,102051.78
2023-01-26T05:12:37.476Z,102049.31
2023-01-26T05:15:22.375Z,102047.63
2023-01-26T05:18:21.319Z,102041.59
2023-01-26T05:20:59.898Z,102029.19
2023-01-26T05:23:29.282Z,102030.34
2023-01-26T05:26:14.512Z,102039.91
2023-01-26T05:28:55.644Z,102043.31
2023-01-26T05:31:23.098Z,102045.16
2023-01-26T05:33:50.505Z,102042.59
2023-01-26T05:36:21.808Z,102045.94
2023-01-26T05:38:48.799Z,102042.41
2023-01-26T05:41:19.456Z,102049.22
2023-01-26T05:44:20.389Z,102049.94
2023-01-26T05:47:06.868Z,102054.19
2023-01-26T05:49:34.336Z,102048.97
2023-01-26T05:52:01.412Z,102046.41
2023-01-26T05:54:29.319Z,102051.53
2023-01-26T05:56:57.613Z,102046.19
2023-01-26T05:59:26.135Z,102040.34
2023-01-26T06:01:53.260Z,102039.31
2023-01-26T06:04:20.434Z,102028.91
2023-01-26T06:07:00.879Z,102018.00
2023-01-26T06:09:53.935Z,102028.66
2023-01-26T06:12:48.066Z,102030.25
2023-01-26T06:15:20.050Z,102028.47
2023-01-26T06:17:48.923Z,102027.69
2023-01-26T06:20:17.941Z,102034.69
2023-01-26T06:22:54.349Z,102026.09
2023-01-26T06:25:21.285Z,102023.59
2023-01-26T06:27:48.237Z,102022.88
2023-01-26T06:30:24.144Z,102026.44
2023-01-26T06:32:51.427Z,102039.47
2023-01-26T06:35:18.590Z,102045.69
2023-01-26T06:37:51.448Z,102043.31
2023-01-26T06:40:19.653Z,102038.22
2023-01-26T06:42:50.199Z,102034.78
2023-01-26T06:45:20.589Z,102019.00
2023-01-26T06:47:50.281Z,102033.19
2023-01-26T06:50:21.264Z,102034.06
2023-01-26T06:52:52.538Z,102036.81
2023-01-26T06:55:39.144Z,102038.59
2023-01-26T06:58:24.735Z,102043.03
2023-01-26T07:01:26.093Z,102040.47
2023-01-26T07:03:54.967Z,102043.31
2023-01-26T07:06:22.061Z,102043.31
2023-01-26T07:08:48.944Z,102050.31
2023-01-26T07:11:16.838Z,102049.50
2023-01-26T07:13:43.762Z,102054.66
2023-01-26T07:16:14.003Z,102046.50
2023-01-26T07:18:40.898Z,102056.22
2023-01-26T07:21:22.892Z,102059.72
2023-01-26T07:23:52.034Z,102061.47
2023-01-26T07:26:20.510Z,102064.06
2023-01-26T07:28:47.494Z,102059.00
2023-01-26T07:31:14.533Z,102055.53
2023-01-26T07:33:41.524Z,102051.19
2023-01-26T07:36:08.977Z,102052.88
2023-01-26T07:38:35.850Z,102055.47
2023-01-26T07:41:10.135Z,102057.94
2023-01-26T07:43:38.504Z,102052.63
2023-01-26T07:46:10.794Z,102057.16
2023-01-26T07:48:37.756Z,102058.09
2023-01-26T07:51:06.050Z,102050.16
2023-01-26T07:53:37.584Z,102063.94
2023-01-26T07:56:11.193Z,102064.16
2023-01-26T07:58:38.261Z,102073.53
2023-01-26T08:01:12.990Z,102062.47
2023-01-26T08:03:40.714Z,102065.91
2023-01-26T08:06:11.677Z,102075.41
2023-01-26T08:08:42.133Z,102062.53
2023-01-26T08:11:11.199Z,102071.94
2023-01-26T08:13:38.556Z,102061.75
2023-01-26T08:16:12.321Z,102066.91
2023-01-26T08:18:41.598Z,102065.22
2023-01-26T08:21:10.085Z,102057.38
2023-01-26T08:23:37.107Z,102064.22
2023-01-26T08:26:07.937Z,102065.03
2023-01-26T08:28:35.840Z,102063.25
2023-01-26T08:31:18.648Z,102044.72
2023-01-26T08:33:48.335Z,102047.81
2023-01-26T08:36:15.887Z,102054.81
2023-01-26T08:38:43.664Z,102047.31
2023-01-26T08:41:11.064Z,102057.59
2023-01-26T08:43:38.365Z,102050.03
2023-01-26T08:46:06.133Z,102056.94
2023-01-26T08:48:33.552Z,102042.41
2023-01-26T08:51:03.571Z,102048.47
2023-01-26T08:53:33.755Z,102049.34
2023-01-26T08:56:09.928Z,102046.88
2023-01-26T08:58:36.896Z,102047.03
2023-01-26T09:01:10.700Z,102044.53
2023-01-26T09:03:37.794Z,102050.75
2023-01-26T09:06:06.346Z,102057.66
2023-01-26T09:08:33.324Z,102051.72
2023-01-26T09:11:00.320Z,102047.28
2023-01-26T09:13:27.181Z,102046.09
2023-01-26T09:15:54.271Z,102042.03
2023-01-26T09:18:21.119Z,102041.44
2023-01-26T09:20:48.016Z,102056.16
2023-01-26T09:23:16.848Z,102064.81
2023-01-26T09:25:44.526Z,102081.16
2023-01-26T09:28:11.402Z,102075.31
2023-01-26T09:30:38.359Z,102071.75
2023-01-26T09:33:06.859Z,102057.19
2023-01-26T09:35:33.790Z,102056.66
2023-01-26T09:38:00.687Z,102037.66
2023-01-26T09:40:42.845Z,102059.91
2023-01-26T09:43:52.751Z,102067.00
2023-01-26T09:46:58.099Z,102067.28
2023-01-26T09:49:49.858Z,102062.19
2023-01-26T09:52:28.519Z,102060.59
2023-01-26T09:54:59.084Z,102065.91
2023-01-26T09:57:38.332Z,102066.06
2023-01-26T10:00:29.571Z,102068.72
2023-01-26T10:03:20.409Z,102062.81
2023-01-26T10:05:55.858Z,102064.59
2023-01-26T10:08:43.608Z,102056.94
2023-01-26T10:11:41.150Z,102049.13
2023-01-26T10:14:16.255Z,102057.75
2023-01-26T10:16:49.180Z,102055.97
2023-01-26T10:19:42.927Z,102054.28
2023-01-26T10:22:31.951Z,102042.38
2023-01-26T10:25:00.361Z,102029.56
2023-01-26T10:27:29.516Z,102030.72
2023-01-26T10:29:56.561Z,102028.22
2023-01-26T10:32:23.655Z,102024.03
2023-01-26T10:34:51.773Z,102030.25
2023-01-26T10:37:26.745Z,102024.31
2023-01-26T10:40:07.500Z,102021.94
2023-01-26T10:42:36.702Z,102021.31
2023-01-26T10:45:28.643Z,102015.19
2023-01-26T10:48:34.234Z,102010.38
2023-01-26T10:51:16.337Z,102000.13
2023-01-26T10:53:43.231Z,101999.34
2023-01-26T10:56:17.116Z,101989.56
2023-01-26T10:58:57.784Z,102001.09
2023-01-26T11:01:27.677Z,102004.66
2023-01-26T11:04:06.209Z,101999.41
2023-01-26T11:06:33.624Z,102003.03
2023-01-26T11:09:13.673Z,101995.38
2023-01-26T11:11:41.371Z,102002.16
2023-01-26T11:14:18.586Z,101989.34
2023-01-26T11:17:29.605Z,101992.97
2023-01-26T11:20:43.809Z,101990.41
2023-01-26T11:23:41.169Z,101987.88
2023-01-26T11:26:18.047Z,101987.00
2023-01-26T11:29:23.356Z,101980.97
2023-01-26T11:32:05.599Z,101984.34
2023-01-26T11:34:55.785Z,101987.66
2023-01-26T11:37:53.826Z,101977.56
2023-01-26T11:40:45.327Z,101972.50
2023-01-26T11:43:40.355Z,101963.97
2023-01-26T11:46:44.743Z,101950.19
2023-01-26T11:49:44.052Z,101954.03
2023-01-26T11:52:35.905Z,101954.22
2023-01-26T11:55:18.572Z,101957.72
2023-01-26T11:58:12.762Z,101947.59
2023-01-26T12:00:56.947Z,101947.75
2023-01-26T12:03:50.431Z,101932.28
2023-01-26T12:06:30.732Z,101941.91
2023-01-26T12:09:18.930Z,101924.69
2023-01-26T12:12:30.884Z,101934.66
2023-01-26T12:15:05.835Z,101934.88
2023-01-26T12:17:53.496Z,101928.91
2023-01-26T12:20:34.708Z,101921.25
2023-01-26T12:23:41.940Z,101919.69
2023-01-26T12:26:16.115Z,101916.47
2023-01-26T12:28:53.345Z,101919.78
2023-01-26T12:31:33.497Z,101921.84
2023-01-26T12:34:00.425Z,101922.81
2023-01-26T12:37:01.797Z,101926.28
2023-01-26T12:39:44.502Z,101930.69
2023-01-26T12:42:39.722Z,101931.59
2023-01-26T12:45:19.341Z,101923.97
2023-01-26T12:47:52.293Z,101919.72
2023-01-26T12:50:48.135Z,101912.88
2023-01-26T12:53:30.187Z,101923.25
2023-01-26T12:56:25.393Z,101918.03
2023-01-26T12:58:54.102Z,101910.28
2023-01-26T13:01:24.176Z,101905.03
2023-01-26T13:04:11.140Z,101913.66
2023-01-26T13:06:38.130Z,101902.25
2023-01-26T13:09:25.934Z,101919.50
2023-01-26T13:12:00.213Z,101915.97
2023-01-26T13:14:59.277Z,101923.69
2023-01-26T13:17:27.297Z,101913.44
2023-01-26T13:20:00.061Z,101912.56
2023-01-26T13:22:26.968Z,101914.25
2023-01-26T13:24:59.585Z,101913.38
2023-01-26T13:27:47.213Z,101911.59
2023-01-26T13:30:25.763Z,101901.38
2023-01-26T13:33:22.269Z,101903.13
2023-01-26T13:35:51.693Z,101915.13
2023-01-26T13:38:31.420Z,101910.06
2023-01-26T13:40:59.040Z,101902.41
2023-01-26T13:43:41.112Z,101903.34
2023-01-26T13:46:39.879Z,101892.16
2023-01-26T13:49:23.792Z,101895.03
2023-01-26T13:51:50.696Z,101892.50
2023-01-26T13:54:17.939Z,101899.50
2023-01-26T13:57:05.316Z,101901.22
2023-01-26T13:59:35.485Z,101895.19
2023-01-26T14:02:02.456Z,101906.28
2023-01-26T14:04:32.240Z,101906.28
2023-01-26T14:07:05.734Z,101902.81
2023-01-26T14:09:48.126Z,101907.94
2023-01-26T14:12:23.662Z,101904.16
2023-01-26T14:14:54.339Z,101921.72
2023-01-26T14:17:50.323Z,101916.00
2023-01-26T14:20:30.492Z,101928.56
2023-01-26T14:23:19.258Z,101930.19
2023-01-26T14:25:57.337Z,101929.38
2023-01-26T14:28:31.323Z,101928.56
2023-01-26T14:31:15.232Z,101928.56
2023-01-26T14:33:42.272Z,101918.91
2023-01-26T14:36:17.572Z,101914.84
2023-01-26T14:38:48.564Z,101928.63
2023-01-26T14:41:31.718Z,101935.50
2023-01-26T14:44:04.083Z,101935.50
2023-01-26T14:47:18.735Z,101937.84
2023-01-26T14:50:01.218Z,101937.78
2023-01-26T14:52:34.551Z,101956.63
2023-01-26T14:55:28.104Z,101949.72
2023-01-26T14:57:57.244Z,101942.78
2023-01-26T15:00:35.609Z,101937.63
2023-01-26T15:03:13.509Z,101925.09
2023-01-26T15:05:44.001Z,101947.78
2023-01-26T15:08:22.396Z,101945.13
2023-01-26T15:11:18.499Z,101950.28
2023-01-26T15:13:52.070Z,101941.63
2023-01-26T15:16:22.921Z,101946.78
2023-01-26T15:19:08.233Z,101958.75
2023-01-26T15:21:40.211Z,101950.97
2023-01-26T15:24:14.313Z,101954.44
2023-01-26T15:26:41.900Z,101957.81
2023-01-26T15:29:32.916Z,101962.81
2023-01-26T15:32:00.223Z,101956.91
2023-01-26T15:34:39.107Z,101956.03
2023-01-26T15:37:30.111Z,101958.63
2023-01-26T15:39:57.134Z,101957.81
2023-01-26T15:42:31.106Z,101957.88
2023-01-26T15:44:58.257Z,101957.88
2023-01-26T15:47:25.675Z,101958.75
2023-01-26T15:49:52.587Z,101955.31
2023-01-26T15:52:25.478Z,101953.59
2023-01-26T15:54:53.848Z,101956.19
2023-01-26T15:57:20.776Z,101956.91
2023-01-26T15:59:47.692Z,101963.72
2023-01-26T16:02:19.623Z,101962.81
2023-01-26T16:04:47.147Z,101956.78
2023-01-26T16:07:18.594Z,101957.59
2023-01-26T16:09:45.733Z,101959.34
2023-01-26T16:12:33.517Z,101942.53
2023-01-26T16:15:00.706Z,101957.66
2023-01-26T16:17:27.653Z,101954.13
2023-01-26T16:19:54.531Z,101954.34
2023-01-26T16:22:21.422Z,101954.34
2023-01-26T16:24:48.324Z,101958.72
2023-01-26T16:27:15.228Z,101959.50
2023-01-26T16:29:42.122Z,101953.47
2023-01-26T16:32:29.611Z,101944.47
2023-01-26T16:34:56.561Z,101954.34
2023-01-26T16:37:23.486Z,101950.97
2023-01-26T16:39:50.371Z,101949.34
2023-01-26T16:42:19.294Z,101948.44
2023-01-26T16:44:47.080Z,101958.75
2023-01-26T16:47:13.983Z,101965.63
2023-01-26T16:49:40.853Z,101955.25
2023-01-26T16:52:09.026Z,101953.59
2023-01-26T16:54:36.036Z,101955.38
2023-01-26T16:57:02.958Z,101956.28
2023-01-26T16:59:29.848Z,101953.78
2023-01-26T17:01:57.210Z,101958.13
2023-01-26T17:04:24.131Z,101952.94
2023-01-26T17:06:51.114Z,101950.38
2023-01-26T17:09:17.999Z,101953.78
2023-01-26T17:11:44.897Z,101944.94
2023-01-26T17:14:12.814Z,101956.34
2023-01-26T17:16:39.833Z,101949.50
2023-01-26T17:19:09.139Z,101952.06
2023-01-26T17:21:36.617Z,101961.56
2023-01-26T17:24:04.037Z,101957.28
2023-01-26T17:26:30.994Z,101959.97
2023-01-26T17:28:57.888Z,101963.41
2023-01-26T17:31:25.619Z,101967.69
2023-01-26T17:33:52.734Z,101968.75
2023-01-26T17:36:20.573Z,101973.09
2023-01-26T17:38:48.481Z,101967.06
2023-01-26T17:41:16.695Z,101968.75
2023-01-26T17:43:43.729Z,101973.91
2023-01-26T17:46:19.499Z,101975.66
2023-01-26T17:48:47.790Z,101973.91
2023-01-26T17:51:18.407Z,101977.38
2023-01-26T17:53:47.759Z,101973.91
2023-01-26T17:56:19.486Z,101976.31
2023-01-26T17:58:51.978Z,101980.81
2023-01-26T18:01:20.330Z,101979.94
2023-01-26T18:03:47.547Z,101979.06
2023-01-26T18:06:14.708Z,101974.84
2023-01-26T18:08:41.902Z,101984.38
2023-01-26T18:11:12.177Z,101981.78
2023-01-26T18:13:39.277Z,101975.75
2023-01-26T18:16:08.115Z,101974.84
2023-01-26T18:18:35.513Z,101963.28
2023-01-26T18:21:13.613Z,101984.44
2023-01-26T18:23:43.801Z,101974.66
2023-01-26T18:26:10.733Z,101980.97
2023-01-26T18:28:39.614Z,101986.13
2023-01-26T18:31:16.297Z,101983.41
2023-01-26T18:33:43.702Z,101984.28
2023-01-26T18:36:13.608Z,101985.09
2023-01-26T18:38:42.221Z,101990.28
2023-01-26T18:41:11.683Z,101985.16
2023-01-26T18:43:39.207Z,101988.66
2023-01-26T18:46:06.770Z,101993.81
2023-01-26T18:48:37.605Z,101993.00
2023-01-26T18:51:05.100Z,101987.59
2023-01-26T18:53:32.047Z,101998.16
2023-01-26T18:56:08.884Z,102006.78
2023-01-26T18:58:37.759Z,102000.81
2023-01-26T19:01:09.769Z,101991.28
2023-01-26T19:03:37.849Z,101991.97
2023-01-26T19:06:06.073Z,101979.84
2023-01-26T19:08:34.318Z,102002.34
2023-01-26T19:11:08.049Z,101994.69
2023-01-26T19:13:35.609Z,101988.72
2023-01-26T19:16:02.507Z,101989.44
2023-01-26T19:18:29.483Z,101989.38
2023-01-26T19:21:02.137Z,101995.09
2023-01-26T19:23:29.540Z,101996.94
2023-01-26T19:25:56.863Z,102005.66
2023-01-26T19:28:23.765Z,102003.03
2023-01-26T19:30:50.661Z,102003.03
2023-01-26T19:33:28.957Z,102009.94
2023-01-26T19:35:56.612Z,102009.06
2023-01-26T19:38:24.405Z,102009.06
2023-01-26T19:40:52.286Z,102006.53
2023-01-26T19:43:20.515Z,102013.47
2023-01-26T19:45:56.449Z,102010.09
2023-01-26T19:48:25.988Z,101998.97
2023-01-26T19:51:23.699Z,102006.72
2023-01-26T19:53:55.405Z,102004.03
2023-01-26T19:56:26.531Z,102018.88
2023-01-26T19:58:56.736Z,102018.94
2023-01-26T20:01:25.322Z,102008.56
2023-01-26T20:03:56.243Z,102010.16
2023-01-26T20:06:28.601Z,102021.50
2023-01-26T20:08:56.159Z,102015.56
2023-01-26T20:11:25.191Z,102008.47
2023-01-26T20:14:06.347Z,102006.91
2023-01-26T20:16:34.271Z,102012.91
2023-01-26T20:19:02.088Z,102004.03
2023-01-26T20:21:30.927Z,102016.34
2023-01-26T20:23:58.346Z,102015.47
2023-01-26T20:26:27.433Z,102020.63
2023-01-26T20:28:57.954Z,102017.19
2023-01-26T20:31:26.101Z,102018.94
2023-01-26T20:33:53.560Z,102025.78
2023-01-26T20:36:24.803Z,102018.06
2023-01-26T20:38:52.153Z,102026.69
2023-01-26T20:41:25.750Z,102027.50
2023-01-26T20:44:00.854Z,102026.63
2023-01-26T20:46:38.135Z,102027.34
2023-01-26T20:49:08.555Z,102029.94
2023-01-26T20:51:38.087Z,102017.91
2023-01-26T20:54:07.490Z,102027.41
2023-01-26T20:56:35.588Z,102009.94
2023-01-26T20:59:02.963Z,102019.63
2023-01-26T21:01:30.294Z,102017.03
2023-01-26T21:03:57.211Z,102015.38
2023-01-26T21:06:24.606Z,102014.50
2023-01-26T21:08:56.277Z,102018.88
2023-01-26T21:11:26.171Z,102019.66
2023-01-26T21:13:55.603Z,102016.31
2023-01-26T21:16:23.296Z,102015.38
2023-01-26T21:18:51.476Z,102010.22
2023-01-26T21:21:19.334Z,102009.28
2023-01-26T21:23:46.808Z,102017.91
2023-01-26T21:26:23.583Z,102013.63
2023-01-26T21:28:56.245Z,102020.56
2023-01-26T21:31:25.970Z,102018.06
2023-01-26T21:33:53.764Z,102006.13
2023-01-26T21:36:24.305Z,102016.44
2023-01-26T21:38:54.470Z,102011.34
2023-01-26T21:41:42.973Z,102020.88
2023-01-26T21:44:26.116Z,102022.56
2023-01-26T21:49:35.759Z,102014.97
2023-01-26T21:52:23.391Z,102022.78
2023-01-26T21:54:53.025Z,102021.09
2023-01-26T21:57:38.358Z,102007.22
2023-01-26T22:00:05.752Z,102021.16
2023-01-26T22:02:33.364Z,102016.00
2023-01-26T22:05:00.251Z,102030.69
2023-01-26T22:07:29.745Z,102025.44
2023-01-26T22:10:00.687Z,102020.38
2023-01-26T22:12:27.692Z,102026.25
2023-01-26T22:14:54.601Z,102018.66
2023-01-26T22:17:21.720Z,102017.78
2023-01-26T22:19:48.621Z,102024.72
2023-01-26T22:22:15.495Z,102021.31
2023-01-26T22:24:42.398Z,102026.53
2023-01-26T22:27:09.339Z,102023.97
2023-01-26T22:29:36.249Z,102020.50
2023-01-26T22:32:03.712Z,102028.25
2023-01-26T22:34:30.632Z,102023.09
2023-01-26T22:36:57.498Z,102026.53
2023-01-26T22:39:24.380Z,102027.44
2023-01-26T22:41:51.254Z,102026.53
2023-01-26T22:44:18.249Z,102029.22
2023-01-26T22:46:45.095Z,102030.09
2023-01-26T22:49:11.988Z,102030.97
2023-01-26T22:51:39.011Z,102034.53
2023-01-26T22:54:05.963Z,102039.53
2023-01-26T22:56:33.432Z,102037.97
2023-01-26T22:59:00.860Z,102036.28
2023-01-26T23:01:33.096Z,102033.28
2023-01-26T23:04:01.302Z,102048.31
2023-01-26T23:06:28.780Z,102038.84
2023-01-26T23:08:55.923Z,102047.50
2023-01-26T23:11:26.313Z,102039.78
2023-01-26T23:13:55.350Z,102052.69
2023-01-26T23:16:23.866Z,102047.50
2023-01-26T23:18:52.790Z,102049.28
2023-01-26T23:21:20.197Z,102047.44
2023-01-26T23:23:47.155Z,102040.41
2023-01-26T23:26:14.505Z,102051.56
2023-01-26T23:28:43.405Z,102029.94
2023-01-26T23:31:12.244Z,102032.53
2023-01-26T23:33:39.318Z,102047.09
2023-01-26T23:36:07.949Z,102035.84
2023-01-26T23:38:35.574Z,102040.09
2023-01-26T23:41:02.862Z,102030.09
2023-01-26T23:43:29.878Z,102037.09
2023-01-26T23:45:57.505Z,102035.41
2023-01-26T23:48:25.091Z,102055.25
2023-01-26T23:51:00.243Z,102040.66
2023-01-26T23:53:28.707Z,102034.75
2023-01-26T23:55:57.755Z,102043.38
2023-01-26T23:58:24.755Z,102047.72
